Time;durP1;ratioP1;P1;durP2;ratioP2;P2;SDS_P1;SDS_P2;PMS_P1;PMS_P2;Temp;Humidity;BMP_temperature;BMP_pressure;BME280_temperature;BME280_humidity;BME280_pressure;Samples;Min_cycle;Max_cycle;Signal;HPM_P1;HPM_P2
2021/04/13 00:01:31;;;;;;;2.30;1.13;;;;;;;;;;5039594;28;20459;-70
2021/04/13 00:04:03;;;;;;;4.87;2.07;;;;;;;;;;5039410;28;20539;-71
2021/04/13 00:06:33;;;;;;;2.10;1.00;;;;;;;;;;5026889;28;20587;-70
2021/04/13 00:09:02;;;;;;;2.20;0.80;;;;;;;;;;5019710;28;20458;-70
2021/04/13 00:11:30;;;;;;;2.37;1.10;;;;;;;;;;5019589;28;20462;-70
2021/04/13 00:14:00;;;;;;;4.13;2.50;;;;;;;;;;5022236;28;20472;-70
2021/04/13 00:16:29;;;;;;;2.17;1.00;;;;;;;;;;5039200;28;20929;-71
2021/04/13 00:18:58;;;;;;;5.70;1.10;;;;;;;;;;5039128;28;20528;-71
2021/04/13 00:21:28;;;;;;;2.47;1.03;;;;;;;;;;5038998;28;20493;-71
2021/04/13 00:23:55;;;;;;;3.97;1.50;;;;;;;;;;5038532;28;20458;-72
2021/04/13 00:26:24;;;;;;;3.60;1.20;;;;;;;;;;5038558;28;20501;-71
2021/04/13 00:28:53;;;;;;;3.63;1.30;;;;;;;;;;5032753;28;20902;-71
2021/04/13 00:31:38;;;;;;;3.67;1.23;;;;;;;;;;5019036;28;20459;-71
2021/04/13 00:34:09;;;;;;;4.67;1.20;;;;;;;;;;5019577;28;20493;-71
2021/04/13 00:36:36;;;;;;;3.00;1.60;;;;;;;;;;5030055;28;20471;-70
2021/04/13 00:39:14;;;;;;;2.10;0.90;;;;;;;;;;5038235;28;20467;-70
2021/04/13 00:41:43;;;;;;;2.57;1.17;;;;;;;;;;5038639;28;20467;-70
2021/04/13 00:44:12;;;;;;;2.63;1.50;;;;;;;;;;5037900;28;20484;-70
2021/04/13 00:46:43;;;;;;;2.10;1.07;;;;;;;;;;5038419;28;20492;-70
2021/04/13 00:49:11;;;;;;;2.53;1.20;;;;;;;;;;5038317;28;20456;-70
2021/04/13 00:51:42;;;;;;;4.40;1.47;;;;;;;;;;5037974;28;20456;-71
2021/04/13 00:54:11;;;;;;;3.80;1.10;;;;;;;;;;5020145;28;20890;-71
2021/04/13 00:56:39;;;;;;;3.00;1.10;;;;;;;;;;5018777;28;20461;-71
2021/04/13 00:59:09;;;;;;;3.50;1.67;;;;;;;;;;5018380;28;20520;-71
2021/04/13 01:01:38;;;;;;;2.10;1.17;;;;;;;;;;5019087;28;20896;-71
2021/04/13 01:04:10;;;;;;;3.30;1.57;;;;;;;;;;5037741;28;20452;-71
2021/04/13 01:06:38;;;;;;;3.23;1.40;;;;;;;;;;5037995;28;20492;-71
2021/04/13 01:09:08;;;;;;;2.80;1.73;;;;;;;;;;5037955;28;20453;-71
2021/04/13 01:11:43;;;;;;;2.40;1.30;;;;;;;;;;5036586;28;20882;-71
2021/04/13 01:14:11;;;;;;;3.20;1.90;;;;;;;;;;5018796;28;20472;-71
2021/04/13 01:16:42;;;;;;;4.77;2.03;;;;;;;;;;5019208;28;20480;-71
2021/04/13 01:19:12;;;;;;;4.70;1.63;;;;;;;;;;5018880;28;20522;-71
2021/04/13 01:21:47;;;;;;;2.20;1.10;;;;;;;;;;5031795;28;20456;-71
2021/04/13 01:24:21;;;;;;;2.90;1.40;;;;;;;;;;5029919;28;20961;-71
2021/04/13 01:26:50;;;;;;;2.30;1.30;;;;;;;;;;5017825;28;20909;-71
2021/04/13 01:29:18;;;;;;;2.10;1.17;;;;;;;;;;5018232;28;20921;-71
2021/04/13 01:31:51;;;;;;;4.20;1.60;;;;;;;;;;5018173;28;20470;-71
2021/04/13 01:34:22;;;;;;;5.00;1.30;;;;;;;;;;5018997;28;20453;-71
2021/04/13 01:37:03;;;;;;;3.03;1.10;;;;;;;;;;5037369;28;20887;-70
2021/04/13 01:39:33;;;;;;;2.90;1.30;;;;;;;;;;5037177;28;20784;-70
2021/04/13 01:42:02;;;;;;;6.13;1.97;;;;;;;;;;5035817;28;20463;-70
2021/04/13 01:44:32;;;;;;;4.67;1.63;;;;;;;;;;5037458;28;20451;-70
2021/04/13 01:47:01;;;;;;;4.10;1.17;;;;;;;;;;5037379;28;20533;-70
2021/04/13 01:49:30;;;;;;;4.50;1.30;;;;;;;;;;5036732;28;20451;-70
2021/04/13 01:51:57;;;;;;;4.67;1.27;;;;;;;;;;5038697;28;20476;-70
2021/04/13 01:54:25;;;;;;;5.93;1.30;;;;;;;;;;5031466;28;20456;-73
2021/04/13 01:57:08;;;;;;;7.43;1.87;;;;;;;;;;5037459;28;20709;-71
2021/04/13 01:59:37;;;;;;;2.73;1.00;;;;;;;;;;5036905;28;20464;-71
2021/04/13 02:02:11;;;;;;;4.57;1.30;;;;;;;;;;5036464;28;20524;-71
2021/04/13 02:04:45;;;;;;;3.20;1.40;;;;;;;;;;5022342;28;20460;-71
2021/04/13 02:07:21;;;;;;;3.90;1.60;;;;;;;;;;5037387;28;20490;-71
2021/04/13 02:09:55;;;;;;;6.70;1.37;;;;;;;;;;5037204;28;20913;-71
2021/04/13 02:12:24;;;;;;;3.90;1.43;;;;;;;;;;5037299;28;20903;-71
2021/04/13 02:14:54;;;;;;;3.90;1.27;;;;;;;;;;5037498;28;21112;-70
2021/04/13 02:17:26;;;;;;;7.33;1.63;;;;;;;;;;5038757;28;20476;-71
2021/04/13 02:19:54;;;;;;;3.47;1.77;;;;;;;;;;5036561;28;20906;-71
2021/04/13 02:22:22;;;;;;;4.07;1.37;;;;;;;;;;5038054;28;20470;-71
2021/04/13 02:24:52;;;;;;;3.20;1.63;;;;;;;;;;5019568;28;20458;-71
2021/04/13 02:27:21;;;;;;;2.40;1.23;;;;;;;;;;5016903;28;20931;-71
2021/04/13 02:29:49;;;;;;;2.83;1.40;;;;;;;;;;5017396;28;20719;-71
2021/04/13 02:32:18;;;;;;;15.23;1.93;;;;;;;;;;5020325;28;20526;-71
2021/04/13 02:34:49;;;;;;;2.50;1.50;;;;;;;;;;5036940;28;20457;-71
2021/04/13 02:37:19;;;;;;;3.00;1.33;;;;;;;;;;5017915;28;20456;-71
2021/04/13 02:39:46;;;;;;;3.37;1.80;;;;;;;;;;5016976;28;20487;-71
2021/04/13 02:42:17;;;;;;;6.83;2.20;;;;;;;;;;5017270;28;20874;-71
2021/04/13 02:44:54;;;;;;;4.10;2.00;;;;;;;;;;5016906;28;20459;-71
2021/04/13 02:47:22;;;;;;;5.33;1.90;;;;;;;;;;5017133;28;20492;-71
2021/04/13 02:49:51;;;;;;;4.23;2.27;;;;;;;;;;5016922;28;20506;-71
2021/04/13 02:52:20;;;;;;;3.30;1.90;;;;;;;;;;5030723;28;20456;-71
2021/04/13 02:54:50;;;;;;;4.60;2.10;;;;;;;;;;5034608;28;20447;-71
2021/04/13 02:57:19;;;;;;;6.93;2.27;;;;;;;;;;5036815;28;20486;-71
2021/04/13 02:59:47;;;;;;;3.97;2.37;;;;;;;;;;5026800;28;20455;-71
2021/04/13 03:02:17;;;;;;;3.73;2.20;;;;;;;;;;5016495;28;20958;-71
2021/04/13 03:04:45;;;;;;;5.73;2.77;;;;;;;;;;5016719;28;20806;-71
2021/04/13 03:07:15;;;;;;;5.40;2.33;;;;;;;;;;5016463;28;20965;-71
2021/04/13 03:09:43;;;;;;;3.77;2.10;;;;;;;;;;5016677;28;20526;-71
2021/04/13 03:12:12;;;;;;;5.30;1.80;;;;;;;;;;5032964;28;20514;-71
2021/04/13 03:14:43;;;;;;;4.63;2.17;;;;;;;;;;5031111;28;20473;-71
2021/04/13 03:17:14;;;;;;;4.77;2.70;;;;;;;;;;5044976;28;20447;-72
2021/04/13 03:19:47;;;;;;;4.17;2.33;;;;;;;;;;5056101;28;20463;-71
2021/04/13 03:22:17;;;;;;;4.67;2.00;;;;;;;;;;5037632;28;20460;-72
2021/04/13 03:24:45;;;;;;;4.30;2.50;;;;;;;;;;5036186;28;20457;-71
2021/04/13 03:27:14;;;;;;;3.00;1.40;;;;;;;;;;5035963;28;20593;-69
2021/04/13 03:29:44;;;;;;;4.13;2.20;;;;;;;;;;5035957;28;20452;-71
2021/04/13 03:32:12;;;;;;;4.30;2.40;;;;;;;;;;5035880;28;20829;-71
2021/04/13 03:34:40;;;;;;;3.80;2.20;;;;;;;;;;5036123;28;20456;-71
2021/04/13 03:37:12;;;;;;;3.63;1.70;;;;;;;;;;5039715;28;20455;-71
2021/04/13 03:39:42;;;;;;;3.83;1.83;;;;;;;;;;5038039;28;20519;-71
2021/04/13 03:42:13;;;;;;;5.20;2.67;;;;;;;;;;5035674;28;20477;-70
2021/04/13 03:44:41;;;;;;;7.57;2.37;;;;;;;;;;5021124;28;20464;-71
2021/04/13 03:47:12;;;;;;;5.00;2.53;;;;;;;;;;5020278;28;20585;-70
2021/04/13 03:49:41;;;;;;;4.80;2.10;;;;;;;;;;5020109;28;20488;-70
2021/04/13 03:52:18;;;;;;;6.10;2.53;;;;;;;;;;5020698;28;20715;-70
2021/04/13 03:54:46;;;;;;;5.93;2.07;;;;;;;;;;5020025;28;20917;-70
2021/04/13 03:57:14;;;;;;;5.57;2.63;;;;;;;;;;5019503;28;20485;-70
2021/04/13 03:59:43;;;;;;;5.10;1.90;;;;;;;;;;5038941;28;20471;-70
2021/04/13 04:02:11;;;;;;;9.10;3.37;;;;;;;;;;5019525;28;20572;-70
2021/04/13 04:04:42;;;;;;;5.10;3.47;;;;;;;;;;5019470;28;20464;-70
2021/04/13 04:07:23;;;;;;;9.10;3.23;;;;;;;;;;5038152;28;20662;-71
2021/04/13 04:09:55;;;;;;;9.13;5.40;;;;;;;;;;5038351;28;20480;-70
2021/04/13 04:12:26;;;;;;;11.30;5.87;;;;;;;;;;5040316;28;20460;-70
2021/04/13 04:15:01;;;;;;;17.83;8.17;;;;;;;;;;5038514;28;20487;-70
2021/04/13 04:17:32;;;;;;;19.50;10.33;;;;;;;;;;5039342;28;20859;-70
2021/04/13 04:20:05;;;;;;;9.90;4.87;;;;;;;;;;5037353;28;20451;-70
2021/04/13 04:22:36;;;;;;;17.87;8.17;;;;;;;;;;5027068;28;20468;-70
2021/04/13 04:25:23;;;;;;;11.07;5.50;;;;;;;;;;5034408;28;20464;-70
2021/04/13 04:27:55;;;;;;;8.90;4.47;;;;;;;;;;5026945;28;20495;-71
2021/04/13 04:30:27;;;;;;;12.17;3.83;;;;;;;;;;5026844;28;20933;-70
2021/04/13 04:33:00;;;;;;;7.33;5.67;;;;;;;;;;5019518;28;20501;-71
2021/04/13 04:35:33;;;;;;;3.87;1.97;;;;;;;;;;5018815;28;20716;-70
2021/04/13 04:38:06;;;;;;;7.17;4.33;;;;;;;;;;5018982;28;20493;-71
2021/04/13 04:40:48;;;;;;;8.73;5.17;;;;;;;;;;5018935;28;20459;-71
2021/04/13 04:43:18;;;;;;;9.80;5.20;;;;;;;;;;5018557;28;20876;-70
2021/04/13 04:45:50;;;;;;;14.27;5.13;;;;;;;;;;5018665;28;20521;-71
2021/04/13 04:48:35;;;;;;;8.00;3.40;;;;;;;;;;5018445;28;20532;-72
2021/04/13 04:51:03;;;;;;;6.73;4.27;;;;;;;;;;5018410;28;20491;-71
2021/04/13 04:53:32;;;;;;;8.80;5.03;;;;;;;;;;5018544;28;20531;-71
2021/04/13 04:56:00;;;;;;;7.30;3.93;;;;;;;;;;5018229;28;20537;-71
2021/04/13 04:58:28;;;;;;;7.67;4.00;;;;;;;;;;5018136;28;20457;-71
2021/04/13 05:00:56;;;;;;;7.67;4.67;;;;;;;;;;5017538;28;20444;-71
2021/04/13 05:03:24;;;;;;;7.17;5.27;;;;;;;;;;5016606;28;20463;-70
2021/04/13 05:05:52;;;;;;;7.80;4.77;;;;;;;;;;5017174;28;20458;-70
2021/04/13 05:08:20;;;;;;;8.70;5.20;;;;;;;;;;5024656;28;20583;-71
2021/04/13 05:10:48;;;;;;;6.97;5.23;;;;;;;;;;5035491;28;20454;-71
2021/04/13 05:13:17;;;;;;;12.40;5.77;;;;;;;;;;5017741;28;20487;-72
2021/04/13 05:15:46;;;;;;;8.10;4.97;;;;;;;;;;5017166;28;20452;-71
2021/04/13 05:18:13;;;;;;;8.33;5.63;;;;;;;;;;5016931;28;20887;-72
2021/04/13 05:20:41;;;;;;;10.47;6.93;;;;;;;;;;5016008;28;20516;-71
2021/04/13 05:23:08;;;;;;;12.20;5.60;;;;;;;;;;5016160;28;20881;-71
2021/04/13 05:25:36;;;;;;;9.33;5.00;;;;;;;;;;5015610;28;20456;-72
2021/04/13 05:28:03;;;;;;;5.37;3.50;;;;;;;;;;5016122;28;20814;-71
2021/04/13 05:30:34;;;;;;;13.43;5.70;;;;;;;;;;5014756;28;20728;-71
2021/04/13 05:33:03;;;;;;;8.90;5.17;;;;;;;;;;5022303;28;20477;-71
2021/04/13 05:35:30;;;;;;;7.03;5.10;;;;;;;;;;5036469;28;20505;-71
2021/04/13 05:37:58;;;;;;;7.53;4.03;;;;;;;;;;5036440;28;20550;-71
2021/04/13 05:40:27;;;;;;;10.67;5.53;;;;;;;;;;5035398;28;20523;-71
2021/04/13 05:42:56;;;;;;;10.97;5.90;;;;;;;;;;5034947;28;20459;-71
2021/04/13 05:45:29;;;;;;;12.60;5.23;;;;;;;;;;5034377;28;20800;-70
2021/04/13 05:47:57;;;;;;;9.13;5.00;;;;;;;;;;5035187;28;20912;-70
2021/04/13 05:50:28;;;;;;;12.63;6.37;;;;;;;;;;5034743;28;20469;-71
2021/04/13 05:52:55;;;;;;;7.87;5.33;;;;;;;;;;5034909;28;20468;-70
2021/04/13 05:55:23;;;;;;;9.17;5.03;;;;;;;;;;5034191;28;20735;-70
2021/04/13 05:57:52;;;;;;;13.83;5.10;;;;;;;;;;5034490;28;20460;-70
2021/04/13 06:00:21;;;;;;;12.17;5.53;;;;;;;;;;5034057;28;20556;-71
2021/04/13 06:02:50;;;;;;;12.00;4.50;;;;;;;;;;5035583;28;20551;-70
2021/04/13 06:05:20;;;;;;;6.80;4.70;;;;;;;;;;5035585;28;20827;-70
2021/04/13 06:07:48;;;;;;;4.53;2.90;;;;;;;;;;5034980;28;20488;-70
2021/04/13 06:10:16;;;;;;;4.57;3.17;;;;;;;;;;5034960;28;20787;-71
2021/04/13 06:12:45;;;;;;;7.97;4.53;;;;;;;;;;5035928;28;20460;-71
2021/04/13 06:15:14;;;;;;;12.17;4.63;;;;;;;;;;5023110;28;20454;-70
2021/04/13 06:17:42;;;;;;;9.43;5.03;;;;;;;;;;5015644;28;20450;-72
2021/04/13 06:20:09;;;;;;;8.90;5.57;;;;;;;;;;5015412;28;20471;-71
2021/04/13 06:22:38;;;;;;;7.50;5.00;;;;;;;;;;5016108;28;20557;-71
2021/04/13 06:25:08;;;;;;;6.50;5.00;;;;;;;;;;5016506;28;20464;-71
2021/04/13 06:27:35;;;;;;;5.07;3.53;;;;;;;;;;5015120;28;20652;-71
2021/04/13 06:30:03;;;;;;;3.53;2.40;;;;;;;;;;5015590;28;20485;-72
2021/04/13 06:32:30;;;;;;;7.70;4.40;;;;;;;;;;5016476;28;20456;-71
2021/04/13 06:34:57;;;;;;;8.93;5.43;;;;;;;;;;5015141;28;20833;-71
2021/04/13 06:37:25;;;;;;;8.20;4.83;;;;;;;;;;5015969;28;20470;-71
2021/04/13 06:39:52;;;;;;;6.73;3.67;;;;;;;;;;5015589;28;20451;-72
2021/04/13 06:42:28;;;;;;;6.13;3.77;;;;;;;;;;5016120;28;20450;-71
2021/04/13 06:45:03;;;;;;;7.60;4.70;;;;;;;;;;5016486;28;20545;-70
2021/04/13 06:47:35;;;;;;;6.70;4.30;;;;;;;;;;5016310;28;20493;-71
2021/04/13 06:50:16;;;;;;;7.10;2.60;;;;;;;;;;5032294;28;20472;-71
2021/04/13 06:52:48;;;;;;;7.80;3.10;;;;;;;;;;5036252;28;20461;-71
2021/04/13 06:55:18;;;;;;;7.07;3.70;;;;;;;;;;5035448;28;20486;-71
2021/04/13 06:57:55;;;;;;;9.47;4.07;;;;;;;;;;5034504;28;20450;-71
2021/04/13 07:00:30;;;;;;;9.30;3.93;;;;;;;;;;5033971;28;20438;-71
2021/04/13 07:03:04;;;;;;;12.70;3.50;;;;;;;;;;5025699;28;20495;-70
2021/04/13 07:05:38;;;;;;;6.17;3.30;;;;;;;;;;5015160;28;20462;-71
2021/04/13 07:08:18;;;;;;;9.50;3.50;;;;;;;;;;5015504;28;20483;-71
2021/04/13 07:10:53;;;;;;;9.80;3.40;;;;;;;;;;5018776;28;20537;-71
2021/04/13 07:13:29;;;;;;;7.13;2.60;;;;;;;;;;5019832;28;20824;-69
2021/04/13 07:16:15;;;;;;;8.63;3.30;;;;;;;;;;5018136;28;20446;-70
2021/04/13 07:18:50;;;;;;;6.97;2.70;;;;;;;;;;5018327;28;20872;-70
2021/04/13 07:21:28;;;;;;;10.33;3.90;;;;;;;;;;5018466;28;20543;-70
2021/04/13 07:24:03;;;;;;;7.80;2.00;;;;;;;;;;5015591;28;20462;-71
2021/04/13 07:26:36;;;;;;;7.20;1.73;;;;;;;;;;5018516;28;20716;-71
2021/04/13 07:29:12;;;;;;;5.10;1.20;;;;;;;;;;5020766;28;20522;-71
2021/04/13 07:31:45;;;;;;;3.07;1.40;;;;;;;;;;5019158;28;20927;-72
2021/04/13 07:34:12;;;;;;;3.20;2.10;;;;;;;;;;5017922;28;20475;-71
2021/04/13 07:36:44;;;;;;;4.60;1.80;;;;;;;;;;5017343;28;20452;-70
2021/04/13 07:39:24;;;;;;;6.33;1.97;;;;;;;;;;5051732;28;20559;-70
2021/04/13 07:41:56;;;;;;;10.03;2.57;;;;;;;;;;5059950;28;20453;-71
2021/04/13 07:44:36;;;;;;;5.13;1.57;;;;;;;;;;5040047;28;20990;-71
2021/04/13 07:47:12;;;;;;;8.90;2.43;;;;;;;;;;5049143;28;20513;-70
2021/04/13 07:49:56;;;;;;;7.10;2.93;;;;;;;;;;5058187;28;20836;-71
2021/04/13 07:52:37;;;;;;;7.03;1.50;;;;;;;;;;5054394;28;20475;-70
2021/04/13 07:55:19;;;;;;;3.23;1.43;;;;;;;;;;5058033;28;20457;-72
2021/04/13 07:57:57;;;;;;;4.80;1.67;;;;;;;;;;5058342;28;20449;-71
2021/04/13 08:00:35;;;;;;;2.20;1.20;;;;;;;;;;5057758;28;20746;-72
2021/04/13 08:03:10;;;;;;;6.40;2.00;;;;;;;;;;5057191;28;20454;-72
2021/04/13 08:05:41;;;;;;;3.63;1.23;;;;;;;;;;5057452;28;20511;-72
2021/04/13 08:08:10;;;;;;;8.87;2.30;;;;;;;;;;5051296;28;20487;-72
2021/04/13 08:10:40;;;;;;;9.73;1.60;;;;;;;;;;5035125;28;20480;-71
2021/04/13 08:13:16;;;;;;;7.40;1.80;;;;;;;;;;5018256;28;20878;-70
2021/04/13 08:15:49;;;;;;;5.00;0.90;;;;;;;;;;5017423;28;20466;-73
2021/04/13 08:18:47;;;;;;;2.20;0.90;;;;;;;;;;5016969;28;20466;-72
2021/04/13 08:21:28;;;;;;;5.70;1.23;;;;;;;;;;5017658;28;20490;-72
2021/04/13 08:24:01;;;;;;;6.70;1.33;;;;;;;;;;5017619;28;20767;-71
2021/04/13 08:26:45;;;;;;;7.77;2.10;;;;;;;;;;5018327;28;20464;-72
2021/04/13 08:29:26;;;;;;;6.10;1.43;;;;;;;;;;5043423;28;20473;-70
2021/04/13 08:37:57;;;;;;;9.40;1.37;;;;;;;;;;5055774;28;20708;-70
2021/04/13 08:40:36;;;;;;;6.43;1.20;;;;;;;;;;5056776;28;20883;-70
2021/04/13 08:43:26;;;;;;;2.63;1.47;;;;;;;;;;5056962;28;20453;-70
2021/04/13 08:46:12;;;;;;;3.97;1.70;;;;;;;;;;5056358;28;20716;-70
2021/04/13 08:48:45;;;;;;;7.00;1.60;;;;;;;;;;5057006;28;20492;-71
2021/04/13 08:51:15;;;;;;;2.47;0.77;;;;;;;;;;5056348;28;20461;-71
2021/04/13 08:53:47;;;;;;;9.30;1.87;;;;;;;;;;5057019;28;20446;-72
2021/04/13 08:56:22;;;;;;;4.50;1.20;;;;;;;;;;5057656;28;20504;-72
2021/04/13 08:58:50;;;;;;;6.80;1.83;;;;;;;;;;5057281;28;20733;-71
2021/04/13 09:01:23;;;;;;;4.90;1.93;;;;;;;;;;5056675;28;20472;-71
2021/04/13 09:03:52;;;;;;;5.20;1.43;;;;;;;;;;5057755;28;20708;-71
2021/04/13 09:06:23;;;;;;;3.13;1.30;;;;;;;;;;5056477;28;20462;-71
2021/04/13 09:08:53;;;;;;;10.93;1.93;;;;;;;;;;5056446;28;20792;-71
2021/04/13 09:11:27;;;;;;;10.13;2.73;;;;;;;;;;5057167;28;20458;-71
2021/04/13 09:14:02;;;;;;;5.03;1.20;;;;;;;;;;5057454;28;20470;-71
2021/04/13 09:16:32;;;;;;;9.03;2.20;;;;;;;;;;5040483;28;20933;-71
2021/04/13 09:19:01;;;;;;;12.73;1.60;;;;;;;;;;5036565;28;20553;-72
2021/04/13 09:21:34;;;;;;;8.03;4.23;;;;;;;;;;5048460;28;20463;-71
2021/04/13 09:24:08;;;;;;;4.30;1.10;;;;;;;;;;5036642;28;20725;-71
2021/04/13 09:26:42;;;;;;;5.73;1.57;;;;;;;;;;5036941;28;20477;-71
2021/04/13 09:29:42;;;;;;;3.13;1.53;;;;;;;;;;5032508;28;20443;-71
2021/04/13 09:32:33;;;;;;;6.60;1.23;;;;;;;;;;5008362;28;20463;-72
2021/04/13 09:35:27;;;;;;;9.03;1.37;;;;;;;;;;5028979;28;20455;-71
2021/04/13 09:38:05;;;;;;;6.83;1.77;;;;;;;;;;5032841;28;20957;-71
2021/04/13 09:40:51;;;;;;;3.60;2.03;;;;;;;;;;5030169;28;20477;-71
2021/04/13 09:43:40;;;;;;;6.20;1.10;;;;;;;;;;5018895;28;20456;-72
2021/04/13 09:46:26;;;;;;;9.13;2.10;;;;;;;;;;4997726;28;20459;-71
2021/04/13 09:49:13;;;;;;;5.77;1.80;;;;;;;;;;5022322;28;20554;-70
2021/04/13 09:51:59;;;;;;;3.73;1.37;;;;;;;;;;5034890;28;20862;-70
2021/04/13 09:54:37;;;;;;;7.17;1.87;;;;;;;;;;5036674;28;20478;-70
2021/04/13 09:57:27;;;;;;;4.20;1.23;;;;;;;;;;5037224;28;20454;-70
2021/04/13 10:00:18;;;;;;;3.60;1.47;;;;;;;;;;5017651;28;20525;-70
2021/04/13 10:03:04;;;;;;;33.23;2.00;;;;;;;;;;5016491;28;20814;-69
2021/04/13 10:11:37;;;;;;;2.03;1.10;;;;;;;;;;5015445;28;20402;-71
2021/04/13 10:14:18;;;;;;;5.00;1.50;;;;;;;;;;5033942;28;20463;-70
2021/04/13 10:16:57;;;;;;;4.53;1.70;;;;;;;;;;5035975;28;20901;-72
2021/04/13 10:19:43;;;;;;;4.07;1.37;;;;;;;;;;5037107;28;20457;-71
2021/04/13 10:22:41;;;;;;;6.90;1.57;;;;;;;;;;5023220;28;20490;-71
2021/04/13 10:25:24;;;;;;;3.90;2.10;;;;;;;;;;5024798;28;20455;-71
2021/04/13 10:28:11;;;;;;;6.13;1.30;;;;;;;;;;5035692;28;20493;-71
2021/04/13 10:31:01;;;;;;;5.07;1.50;;;;;;;;;;5019606;28;20443;-72
2021/04/13 10:33:40;;;;;;;7.63;2.03;;;;;;;;;;5031315;28;20487;-73
2021/04/13 10:36:27;;;;;;;19.30;2.10;;;;;;;;;;5030720;28;20451;-72
2021/04/13 10:39:07;;;;;;;3.57;1.13;;;;;;;;;;5016352;28;20483;-71
2021/04/13 10:41:53;;;;;;;25.53;4.03;;;;;;;;;;5016225;28;20455;-70
2021/04/13 10:45:03;;;;;;;2.67;0.70;;;;;;;;;;5017666;28;20466;-70
2021/04/13 10:47:58;;;;;;;5.67;1.23;;;;;;;;;;5034162;28;20581;-71
2021/04/13 10:50:48;;;;;;;7.20;1.40;;;;;;;;;;4998988;28;20466;-72
2021/04/13 10:53:35;;;;;;;3.10;1.50;;;;;;;;;;5030114;28;20734;-71
2021/04/13 10:56:18;;;;;;;7.37;1.30;;;;;;;;;;5034663;28;20455;-71
2021/04/13 10:59:04;;;;;;;3.63;0.90;;;;;;;;;;5032629;28;20489;-72
2021/04/13 11:02:06;;;;;;;5.93;1.27;;;;;;;;;;5033143;28;20470;-71
2021/04/13 11:04:52;;;;;;;4.10;1.17;;;;;;;;;;5015034;28;20554;-71
2021/04/13 11:07:36;;;;;;;3.13;1.20;;;;;;;;;;5027049;28;20493;-72
2021/04/13 11:10:25;;;;;;;1.37;0.73;;;;;;;;;;5040592;28;20461;-72
2021/04/13 11:13:25;;;;;;;11.53;1.80;;;;;;;;;;4997071;28;20463;-71
2021/04/13 11:16:11;;;;;;;4.93;1.07;;;;;;;;;;5031336;28;20463;-70
2021/04/13 11:19:06;;;;;;;2.70;1.53;;;;;;;;;;5025229;28;20817;-72
2021/04/13 11:21:47;;;;;;;7.03;1.37;;;;;;;;;;5031475;28;20519;-71
2021/04/13 11:24:37;;;;;;;7.53;0.93;;;;;;;;;;5033988;28;20455;-71
2021/04/13 11:27:28;;;;;;;1.80;0.70;;;;;;;;;;5028200;28;20474;-71
2021/04/13 11:30:26;;;;;;;3.53;0.70;;;;;;;;;;5034833;28;20465;-71
2021/04/13 11:33:09;;;;;;;3.30;1.37;;;;;;;;;;5034654;28;20465;-72
2021/04/13 11:35:38;;;;;;;3.60;1.90;;;;;;;;;;5034885;28;20806;-72
2021/04/13 11:38:27;;;;;;;9.27;1.17;;;;;;;;;;5033806;28;20455;-70
2021/04/13 11:41:08;;;;;;;5.07;0.93;;;;;;;;;;5049477;28;20446;-72
2021/04/13 11:43:38;;;;;;;28.30;25.33;;;;;;;;;;5033575;28;20450;-72
2021/04/13 11:46:15;;;;;;;5.60;0.70;;;;;;;;;;5027030;28;20466;-70
2021/04/13 11:48:46;;;;;;;6.90;3.73;;;;;;;;;;5022042;28;20474;-71
2021/04/13 11:51:20;;;;;;;6.17;2.93;;;;;;;;;;5033914;28;20442;-71
2021/04/13 11:53:59;;;;;;;10.50;2.03;;;;;;;;;;5033605;28;20443;-70
2021/04/13 11:56:40;;;;;;;7.23;1.53;;;;;;;;;;5036028;28;20465;-71
2021/04/13 11:59:52;;;;;;;3.93;1.70;;;;;;;;;;5037378;28;20545;-71
2021/04/13 12:02:28;;;;;;;4.80;1.17;;;;;;;;;;5036877;28;20451;-71
2021/04/13 12:04:58;;;;;;;4.70;0.90;;;;;;;;;;5037288;28;20894;-71
2021/04/13 12:07:45;;;;;;;5.33;1.73;;;;;;;;;;5037204;28;20494;-71
2021/04/13 12:10:15;;;;;;;2.67;0.90;;;;;;;;;;5038071;28;20451;-71
2021/04/13 12:12:47;;;;;;;5.27;4.77;;;;;;;;;;5038386;28;20462;-72
2021/04/13 12:15:35;;;;;;;1.53;0.80;;;;;;;;;;5038022;28;20468;-72
2021/04/13 12:18:03;;;;;;;2.07;1.13;;;;;;;;;;5038289;28;20454;-72
2021/04/13 12:20:42;;;;;;;4.50;1.07;;;;;;;;;;5037955;28;20850;-72
2021/04/13 12:23:27;;;;;;;6.50;1.67;;;;;;;;;;5037512;28;20458;-72
2021/04/13 12:26:11;;;;;;;4.70;1.17;;;;;;;;;;5034460;28;20930;-71
2021/04/13 12:28:48;;;;;;;4.27;1.00;;;;;;;;;;5017969;28;20998;-72
2021/04/13 12:31:23;;;;;;;3.23;1.10;;;;;;;;;;5017640;28;20451;-72
2021/04/13 12:33:54;;;;;;;2.07;0.90;;;;;;;;;;5017729;28;20561;-72
2021/04/13 12:36:40;;;;;;;3.23;1.30;;;;;;;;;;5017700;28;20467;-72
2021/04/13 12:39:08;;;;;;;4.83;1.00;;;;;;;;;;5017632;28;20463;-72
2021/04/13 12:41:58;;;;;;;4.17;1.23;;;;;;;;;;5017607;28;20501;-72
2021/04/13 12:44:27;;;;;;;4.53;0.90;;;;;;;;;;5017429;28;20462;-72
2021/04/13 12:46:56;;;;;;;11.33;2.80;;;;;;;;;;5017441;28;20539;-71
2021/04/13 12:49:29;;;;;;;5.73;1.27;;;;;;;;;;5017534;28;20782;-72
2021/04/13 12:51:59;;;;;;;7.50;1.43;;;;;;;;;;5016629;28;20456;-71
2021/04/13 12:54:29;;;;;;;5.60;1.43;;;;;;;;;;5017591;28;20848;-71
2021/04/13 12:56:59;;;;;;;1.70;1.00;;;;;;;;;;5017430;28;20483;-71
2021/04/13 12:59:29;;;;;;;3.83;1.17;;;;;;;;;;5025006;28;20867;-71
2021/04/13 13:01:57;;;;;;;4.97;1.40;;;;;;;;;;5035721;28;20451;-71
2021/04/13 13:04:26;;;;;;;3.57;0.90;;;;;;;;;;5036709;28;20481;-70
2021/04/13 13:06:58;;;;;;;2.80;0.83;;;;;;;;;;5036485;28;20818;-70
2021/04/13 13:09:29;;;;;;;5.00;1.40;;;;;;;;;;5036067;28;20592;-71
2021/04/13 13:12:02;;;;;;;3.10;1.20;;;;;;;;;;5035115;28;20450;-71
2021/04/13 13:14:34;;;;;;;3.50;1.20;;;;;;;;;;5031935;28;20454;-71
2021/04/13 13:17:06;;;;;;;3.80;1.20;;;;;;;;;;5030302;28;20499;-71
2021/04/13 13:19:45;;;;;;;2.63;1.00;;;;;;;;;;5016767;28;20521;-70
2021/04/13 13:22:21;;;;;;;3.47;1.43;;;;;;;;;;5016408;28;20483;-72
2021/04/13 13:24:58;;;;;;;7.87;1.83;;;;;;;;;;5016084;28;20507;-71
2021/04/13 13:27:31;;;;;;;5.77;1.47;;;;;;;;;;5016429;28;20486;-72
2021/04/13 13:33:22;;;;;;;9.10;0.97;;;;;;;;;;5010731;28;20446;-70
2021/04/13 13:35:59;;;;;;;6.17;1.90;;;;;;;;;;5032913;28;20805;-71
2021/04/13 13:38:31;;;;;;;10.03;2.17;;;;;;;;;;5034381;28;20504;-71
2021/04/13 13:41:05;;;;;;;1.47;0.80;;;;;;;;;;5030740;28;20463;-70
2021/04/13 13:43:34;;;;;;;6.13;1.00;;;;;;;;;;5037178;28;20549;-71
2021/04/13 13:46:37;;;;;;;6.87;1.23;;;;;;;;;;5054786;28;20465;-70
2021/04/13 13:49:32;;;;;;;3.93;1.00;;;;;;;;;;5035818;28;20923;-71
2021/04/13 13:52:10;;;;;;;6.17;1.90;;;;;;;;;;5015070;28;21040;-71
2021/04/13 13:54:47;;;;;;;3.30;1.00;;;;;;;;;;5014378;28;20790;-73
2021/04/13 13:57:37;;;;;;;2.80;0.87;;;;;;;;;;5014714;28;20567;-71
2021/04/13 14:00:08;;;;;;;3.20;1.50;;;;;;;;;;5014321;28;20848;-71
2021/04/13 14:02:44;;;;;;;2.50;1.70;;;;;;;;;;5014863;28;20447;-71
2021/04/13 14:05:24;;;;;;;2.97;0.97;;;;;;;;;;5015687;28;20455;-71
2021/04/13 14:08:20;;;;;;;4.33;0.70;;;;;;;;;;5015711;28;20903;-71
2021/04/13 14:11:01;;;;;;;2.60;1.00;;;;;;;;;;5014346;28;20456;-71
2021/04/13 14:13:44;;;;;;;3.10;0.93;;;;;;;;;;5013145;28;20705;-71
2021/04/13 14:16:33;;;;;;;3.97;1.20;;;;;;;;;;5029596;28;20480;-70
2021/04/13 14:19:19;;;;;;;7.90;1.73;;;;;;;;;;5018460;28;20466;-71
2021/04/13 14:27:35;;;;;;;1.60;0.90;;;;;;;;;;5028292;28;20451;-71
2021/04/13 14:30:20;;;;;;;3.67;1.47;;;;;;;;;;5028048;28;20471;-70
2021/04/13 14:32:55;;;;;;;3.77;1.83;;;;;;;;;;5024710;28;20450;-71
2021/04/13 14:35:25;;;;;;;5.43;1.60;;;;;;;;;;5033377;28;20486;-72
2021/04/13 14:38:01;;;;;;;3.30;0.90;;;;;;;;;;5033289;28;20600;-72
2021/04/13 14:40:33;;;;;;;3.17;1.17;;;;;;;;;;5013712;28;20811;-71
2021/04/13 14:43:05;;;;;;;8.57;1.03;;;;;;;;;;5017677;28;20456;-70
2021/04/13 14:45:34;;;;;;;3.70;1.20;;;;;;;;;;5031070;28;20451;-71
2021/04/13 14:48:08;;;;;;;2.80;0.87;;;;;;;;;;5034615;28;20575;-71
2021/04/13 14:51:06;;;;;;;3.37;1.20;;;;;;;;;;5034565;28;20490;-70
2021/04/13 14:53:38;;;;;;;3.63;1.20;;;;;;;;;;5034324;28;20516;-71
2021/04/13 14:56:10;;;;;;;2.37;0.67;;;;;;;;;;5050318;28;20458;-70
2021/04/13 14:58:39;;;;;;;4.50;1.23;;;;;;;;;;5054972;28;20450;-71
2021/04/13 15:01:12;;;;;;;5.63;1.10;;;;;;;;;;5054664;28;20548;-71
2021/04/13 15:03:46;;;;;;;4.07;1.73;;;;;;;;;;5053549;28;20751;-71
2021/04/13 15:06:19;;;;;;;1.60;0.90;;;;;;;;;;5055564;28;20557;-71
2021/04/13 15:08:48;;;;;;;2.87;1.13;;;;;;;;;;5033857;28;20497;-71
2021/04/13 15:11:27;;;;;;;8.33;1.93;;;;;;;;;;5035669;28;20567;-71
2021/04/13 15:14:08;;;;;;;5.73;1.20;;;;;;;;;;5021838;28;20534;-71
2021/04/13 15:16:44;;;;;;;2.60;0.80;;;;;;;;;;5014521;28;20471;-72
2021/04/13 15:19:22;;;;;;;2.30;0.70;;;;;;;;;;5028243;28;20454;-71
2021/04/13 15:22:00;;;;;;;3.03;1.10;;;;;;;;;;5041912;28;20505;-71
2021/04/13 15:24:29;;;;;;;3.93;1.17;;;;;;;;;;5013813;28;20440;-72
2021/04/13 15:27:13;;;;;;;4.60;0.83;;;;;;;;;;5024909;28;20465;-72
2021/04/13 15:29:50;;;;;;;2.30;1.17;;;;;;;;;;5034450;28;20592;-72
2021/04/13 15:32:28;;;;;;;3.57;1.47;;;;;;;;;;5030270;28;20523;-72
2021/04/13 15:35:23;;;;;;;4.20;1.40;;;;;;;;;;5057372;28;20509;-72
2021/04/13 15:37:59;;;;;;;3.60;1.20;;;;;;;;;;5047542;28;20457;-72
2021/04/13 15:40:31;;;;;;;4.23;1.20;;;;;;;;;;5036301;28;20462;-72
2021/04/13 15:43:12;;;;;;;3.67;0.90;;;;;;;;;;5022357;28;20574;-72
2021/04/13 15:45:46;;;;;;;3.60;0.93;;;;;;;;;;5017894;28;20513;-71
2021/04/13 15:48:20;;;;;;;5.93;1.30;;;;;;;;;;5031236;28;20473;-72